Dades meteomassalio
Diari Summary for Nil La, TWC- Units:  Both    English   Metric
« Previous Day
Next Day »
Diari Semanal Mensual Anual Personalitzat
  Maxima: Minima: Mijana:
Temperatura: TemperatureC °F /  -17.8 °C 1.7 °F /  -16.8 °C 5.5 °F /  -14.7 °C
Rosada: DewpointC °F /  -17.8 °C -0.6 °F /  -18.1 °C 2.2 °F /  -16.6 °C
Humitat: Humidity % 66 % 79 %
Velocitat del vent: WindSpeedKMH mph /  0 km/h - 18.5 mph /  29.8 km/h
Racha vent: WindSpeedGustKMH mph /  0 km/h - -
Vent:- - NW
Pressio: PressurehPa in /  0 hPa 1018.8 in /  34496.6 hPa -
Pluja: 0.0 in /  0 mm    
Historical Graphs
 
 
Tabular Data for Nil La, TWC-
Time Temperature Dew Point Pressure Wind Wind Speed Wind Gust Humidity Rainfall Rate (Hourly) solar Conditions
TemperatureC °F /  -17.8 °C DewpointC °F /  -17.8 °C PressurehPa in /  0 hPa Calm     Humidity % HourlyPrecipMM in /  0 mm SolarRadiationWatts/m^2 W/m2 Conditions
00:04 4.4 °F /  -15.3 °C 2.0 °F /  -16.7 °C 1018.9 in /  34500 hPa WNW 20.4 mph /  32.8 km/h 15.9 mph /  25.6 km/h 84 % 0.0 in /  0 mm 0.00 W/m2 RA
00:09 4.4 °F /  -15.3 °C 2.0 °F /  -16.7 °C 1019.0 in /  34503.3 hPa WNW 18.5 mph /  29.8 km/h 6.3 mph /  10.1 km/h 84 % 0.0 in /  0 mm 0.00 W/m2 CLR
00:14 4.4 °F /  -15.3 °C 2.0 °F /  -16.7 °C 1019.0 in /  34503.3 hPa West 14.8 mph /  23.8 km/h 10.9 mph /  17.5 km/h 84 % 0.0 in /  0 mm 0.00 W/m2 CLR
00:19 4.4 °F /  -15.3 °C 2.0 °F /  -16.7 °C 1019.2 in /  34510.1 hPa West 11.1 mph /  17.9 km/h 6.9 mph /  11.1 km/h 84 % 0.0 in /  0 mm 0.00 W/m2 CLR
00:24 4.4 °F /  -15.3 °C 2.0 °F /  -16.7 °C 1019.2 in /  34510.1 hPa WNW 13.0 mph /  20.9 km/h 11.1 mph /  17.9 km/h 84 % 0.0 in /  0 mm 0.00 W/m2 CLR
00:29 4.4 °F /  -15.3 °C 2.0 °F /  -16.7 °C 1019.2 in /  34510.1 hPa NW 16.1 mph /  25.9 km/h 11.1 mph /  17.9 km/h 84 % 0.0 in /  0 mm 0.00 W/m2 CLR
00:34 3.9 °F /  -15.6 °C 1.6 °F /  -16.9 °C 1019.2 in /  34510.1 hPa NW 16.7 mph /  26.9 km/h 13.8 mph /  22.2 km/h 85 % 0.0 in /  0 mm 0.00 W/m2 CLR
00:39 3.9 °F /  -15.6 °C 1.4 °F /  -17 °C 1019.2 in /  34510.1 hPa NW 14.8 mph /  23.8 km/h 11.1 mph /  17.9 km/h 84 % 0.0 in /  0 mm 0.00 W/m2 CLR
00:44 3.9 °F /  -15.6 °C 1.3 °F /  -17.1 °C 1019.2 in /  34510.1 hPa NW 25.9 mph /  41.7 km/h 13.7 mph /  22 km/h 83 % 0.0 in /  0 mm 0.00 W/m2 CLR
00:49 4.4 °F /  -15.3 °C 1.8 °F /  -16.8 °C 1019.2 in /  34510.1 hPa NW 11.3 mph /  18.2 km/h 7.1 mph /  11.4 km/h 83 % 0.0 in /  0 mm 0.00 W/m2 CLR
00:54 4.4 °F /  -15.3 °C 1.8 °F /  -16.8 °C 1019.2 in /  34510.1 hPa NW 16.1 mph /  25.9 km/h 5.6 mph /  9 km/h 83 % 0.0 in /  0 mm 0.00 W/m2 CLR
00:59 4.4 °F /  -15.3 °C 1.8 °F /  -16.8 °C 1019.0 in /  34503.3 hPa NW 33.3 mph /  53.6 km/h 15.8 mph /  25.4 km/h 83 % 0.0 in /  0 mm 0.00 W/m2 CLR
01:04 5.0 °F /  -15 °C 2.3 °F /  -16.5 °C 1019.0 in /  34503.3 hPa North 16.7 mph /  26.9 km/h 10.0 mph /  16.1 km/h 83 % 0.0 in /  0 mm 0.00 W/m2 CLR
01:09 5.0 °F /  -15 °C 2.3 °F /  -16.5 °C 1019.0 in /  34503.3 hPa Calm     83 % 0.0 in /  0 mm 0.00 W/m2 CLR
01:14 5.0 °F /  -15 °C 2.3 °F /  -16.5 °C 1018.9 in /  34500 hPa WNW 11.1 mph /  17.9 km/h 12.4 mph /  20 km/h 83 % 0.0 in /  0 mm 0.00 W/m2 CLR
01:19 5.0 °F /  -15 °C 2.3 °F /  -16.5 °C 1019.0 in /  34503.3 hPa NW 18.5 mph /  29.8 km/h 15.4 mph /  24.8 km/h 83 % 0.0 in /  0 mm 0.00 W/m2 CLR
01:24 4.4 °F /  -15.3 °C 1.8 °F /  -16.8 °C 1019.0 in /  34503.3 hPa WNW 18.5 mph /  29.8 km/h 14.0 mph /  22.5 km/h 83 % 0.0 in /  0 mm 0.00 W/m2 CLR
01:29 4.4 °F /  -15.3 °C 1.8 °F /  -16.8 °C 1019.0 in /  34503.3 hPa NW 18.5 mph /  29.8 km/h 12.7 mph /  20.4 km/h 83 % 0.0 in /  0 mm 0.00 W/m2 CLR
01:34 4.4 °F /  -15.3 °C 1.8 °F /  -16.8 °C 1019.0 in /  34503.3 hPa WNW 17.7 mph /  28.5 km/h 10.1 mph /  16.3 km/h 83 % 0.0 in /  0 mm 0.00 W/m2 CLR
01:39 4.4 °F /  -15.3 °C 1.8 °F /  -16.8 °C 1019.0 in /  34503.3 hPa WNW 18.5 mph /  29.8 km/h 12.4 mph /  20 km/h 83 % 0.0 in /  0 mm 0.00 W/m2 CLR
01:44 4.4 °F /  -15.3 °C 1.8 °F /  -16.8 °C 1019.1 in /  34506.7 hPa NW 18.5 mph /  29.8 km/h 12.1 mph /  19.5 km/h 83 % 0.0 in /  0 mm 0.00 W/m2 CLR
01:49 4.4 °F /  -15.3 °C 1.8 °F /  -16.8 °C 1019.1 in /  34506.7 hPa WNW 13.0 mph /  20.9 km/h 7.4 mph /  11.9 km/h 83 % 0.0 in /  0 mm 0.00 W/m2 CLR
01:54 4.4 °F /  -15.3 °C 1.8 °F /  -16.8 °C 1019.0 in /  34503.3 hPa NW 16.7 mph /  26.9 km/h 11.6 mph /  18.7 km/h 83 % 0.0 in /  0 mm 0.00 W/m2 CLR
01:59 4.4 °F /  -15.3 °C 1.8 °F /  -16.8 °C 1019.0 in /  34503.3 hPa WNW 22.2 mph /  35.7 km/h 13.5 mph /  21.7 km/h 83 % 0.0 in /  0 mm 0.00 W/m2 CLR
02:04 3.9 °F /  -15.6 °C 1.3 °F /  -17.1 °C 1019.1 in /  34506.7 hPa NW 18.5 mph /  29.8 km/h 11.1 mph /  17.9 km/h 83 % 0.0 in /  0 mm 0.00 W/m2 CLR
02:09 3.9 °F /  -15.6 °C 1.4 °F /  -17 °C 1019.1 in /  34506.7 hPa WNW 14.5 mph /  23.3 km/h 9.5 mph /  15.3 km/h 84 % 0.0 in /  0 mm 0.00 W/m2 CLR
02:14 4.4 °F /  -15.3 °C 2.0 °F /  -16.7 °C 1019.0 in /  34503.3 hPa NW 18.5 mph /  29.8 km/h 11.6 mph /  18.7 km/h 84 % 0.0 in /  0 mm 0.00 W/m2 CLR
02:19 3.9 °F /  -15.6 °C 1.4 °F /  -17 °C 1018.9 in /  34500 hPa NNW 14.8 mph /  23.8 km/h 10.0 mph /  16.1 km/h 84 % 0.0 in /  0 mm 0.00 W/m2 CLR
02:24 3.9 °F /  -15.6 °C 1.4 °F /  -17 °C 1018.9 in /  34500 hPa NW 4.8 mph /  7.7 km/h 1.0 mph /  1.6 km/h 84 % 0.0 in /  0 mm 0.00 W/m2 CLR
02:29 3.9 °F /  -15.6 °C 1.4 °F /  -17 °C 1018.9 in /  34500 hPa North 17.7 mph /  28.5 km/h 10.8 mph /  17.4 km/h 84 % 0.0 in /  0 mm 0.00 W/m2 CLR
02:34 3.9 °F /  -15.6 °C 1.4 °F /  -17 °C 1018.8 in /  34496.6 hPa North 16.1 mph /  25.9 km/h 6.6 mph /  10.6 km/h 84 % 0.0 in /  0 mm 0.00 W/m2 CLR
02:39 3.9 °F /  -15.6 °C 1.4 °F /  -17 °C 1018.9 in /  34500 hPa WNW 14.8 mph /  23.8 km/h 10.3 mph /  16.6 km/h 84 % 0.0 in /  0 mm 0.00 W/m2 CLR
02:44 3.9 °F /  -15.6 °C 1.4 °F /  -17 °C 1018.9 in /  34500 hPa West 13.0 mph /  20.9 km/h   84 % 0.0 in /  0 mm 0.00 W/m2 CLR
02:49 4.4 °F /  -15.3 °C 2.0 °F /  -16.7 °C 1018.8 in /  34496.6 hPa WSW 18.5 mph /  29.8 km/h 5.8 mph /  9.3 km/h 84 % 0.0 in /  0 mm 0.00 W/m2 CLR
02:54 4.4 °F /  -15.3 °C 2.0 °F /  -16.7 °C 1018.8 in /  34496.6 hPa North 12.9 mph /  20.8 km/h 1.1 mph /  1.8 km/h 84 % 0.0 in /  0 mm 0.00 W/m2 CLR
02:59 4.4 °F /  -15.3 °C 2.0 °F /  -16.7 °C 1018.9 in /  34500 hPa SSW 11.1 mph /  17.9 km/h 5.1 mph /  8.2 km/h 84 % 0.0 in /  0 mm 0.00 W/m2 CLR
03:04 3.9 °F /  -15.6 °C 1.4 °F /  -17 °C 1018.9 in /  34500 hPa Calm     84 % 0.0 in /  0 mm 0.00 W/m2 CLR
03:09 3.9 °F /  -15.6 °C 1.4 °F /  -17 °C 1019.0 in /  34503.3 hPa Calm     84 % 0.0 in /  0 mm 0.00 W/m2 CLR
03:14 3.3 °F /  -15.9 °C 0.9 °F /  -17.3 °C 1018.9 in /  34500 hPa Calm     84 % 0.0 in /  0 mm 0.00 W/m2 CLR
03:19 3.3 °F /  -15.9 °C 0.9 °F /  -17.3 °C 1019.0 in /  34503.3 hPa Calm     84 % 0.0 in /  0 mm 0.00 W/m2 CLR
03:24 3.3 °F /  -15.9 °C 0.9 °F /  -17.3 °C 1019.1 in /  34506.7 hPa Calm     84 % 0.0 in /  0 mm 0.00 W/m2 CLR
03:29 3.3 °F /  -15.9 °C 1.1 °F /  -17.2 °C 1019.1 in /  34506.7 hPa NW 11.1 mph /  17.9 km/h 1.9 mph /  3.1 km/h 85 % 0.0 in /  0 mm 0.00 W/m2 CLR
03:34 3.3 °F /  -15.9 °C 1.1 °F /  -17.2 °C 1019.1 in /  34506.7 hPa South 5.6 mph /  9 km/h 1.4 mph /  2.3 km/h 85 % 0.0 in /  0 mm 0.00 W/m2 CLR
03:39 3.3 °F /  -15.9 °C 0.9 °F /  -17.3 °C 1019.1 in /  34506.7 hPa Calm     84 % 0.0 in /  0 mm 0.00 W/m2 CLR
03:44 3.3 °F /  -15.9 °C 1.1 °F /  -17.2 °C 1019.3 in /  34513.5 hPa Calm     85 % 0.0 in /  0 mm 0.00 W/m2 CLR
03:49 3.3 °F /  -15.9 °C 1.1 °F /  -17.2 °C 1019.2 in /  34510.1 hPa Calm   1.0 mph /  1.6 km/h 85 % 0.0 in /  0 mm 0.00 W/m2 CLR
03:54 3.3 °F /  -15.9 °C 1.1 °F /  -17.2 °C 1019.2 in /  34510.1 hPa Calm     85 % 0.0 in /  0 mm 0.00 W/m2 CLR
03:59 3.9 °F /  -15.6 °C 1.6 °F /  -16.9 °C 1019.2 in /  34510.1 hPa Calm     85 % 0.0 in /  0 mm 0.00 W/m2 CLR
04:04 3.9 °F /  -15.6 °C 1.6 °F /  -16.9 °C 1019.2 in /  34510.1 hPa Calm     85 % 0.0 in /  0 mm 0.00 W/m2 CLR
04:09 3.9 °F /  -15.6 °C 1.6 °F /  -16.9 °C 1019.3 in /  34513.5 hPa Calm     85 % 0.0 in /  0 mm 0.00 W/m2 CLR
04:14 3.9 °F /  -15.6 °C 1.8 °F /  -16.8 °C 1019.3 in /  34513.5 hPa WSW 7.4 mph /  11.9 km/h 2.6 mph /  4.2 km/h 86 % 0.0 in /  0 mm 0.00 W/m2 CLR
04:19 3.9 °F /  -15.6 °C 1.8 °F /  -16.8 °C 1019.2 in /  34510.1 hPa Calm     86 % 0.0 in /  0 mm 0.00 W/m2 CLR
04:24 3.9 °F /  -15.6 °C 1.6 °F /  -16.9 °C 1019.2 in /  34510.1 hPa Calm     85 % 0.0 in /  0 mm 0.00 W/m2 CLR
04:29 3.9 °F /  -15.6 °C 1.8 °F /  -16.8 °C 1019.2 in /  34510.1 hPa Calm     86 % 0.0 in /  0 mm 0.00 W/m2 CLR
04:34 3.9 °F /  -15.6 °C 1.6 °F /  -16.9 °C 1019.2 in /  34510.1 hPa Calm     85 % 0.0 in /  0 mm 0.00 W/m2 CLR
04:39 3.3 °F /  -15.9 °C 1.2 °F /  -17.1 °C 1019.2 in /  34510.1 hPa NW 16.1 mph /  25.9 km/h 9.0 mph /  14.5 km/h 86 % 0.0 in /  0 mm 0.00 W/m2 CLR
04:44 2.8 °F /  -16.2 °C 0.7 °F /  -17.4 °C 1019.3 in /  34513.5 hPa NW 16.7 mph /  26.9 km/h 12.9 mph /  20.8 km/h 86 % 0.0 in /  0 mm 0.00 W/m2 CLR
04:49 2.2 °F /  -16.6 °C 0.1 °F /  -17.7 °C 1019.3 in /  34513.5 hPa WNW 9.3 mph /  15 km/h 7.6 mph /  12.2 km/h 86 % 0.0 in /  0 mm 0.00 W/m2 CLR
04:54 2.2 °F /  -16.6 °C 0.1 °F /  -17.7 °C 1019.2 in /  34510.1 hPa NW 12.9 mph /  20.8 km/h 7.6 mph /  12.2 km/h 86 % 0.0 in /  0 mm 0.00 W/m2 CLR
04:59 2.2 °F /  -16.6 °C -0.1 °F /  -17.8 °C 1019.2 in /  34510.1 hPa West 5.6 mph /  9 km/h   85 % 0.0 in /  0 mm 0.00 W/m2 CLR
05:04 1.7 °F /  -16.8 °C -0.6 °F /  -18.1 °C 1019.2 in /  34510.1 hPa Calm     85 % 0.0 in /  0 mm 0.00 W/m2 CLR
05:09 2.2 °F /  -16.6 °C -0.1 °F /  -17.8 °C 1019.2 in /  34510.1 hPa Calm     85 % 0.0 in /  0 mm 0.00 W/m2 CLR
05:14 2.2 °F /  -16.6 °C 0.1 °F /  -17.7 °C 1019.3 in /  34513.5 hPa SW 4.8 mph /  7.7 km/h 2.6 mph /  4.2 km/h 86 % 0.0 in /  0 mm 0.00 W/m2 CLR
05:19 2.2 °F /  -16.6 °C 0.1 °F /  -17.7 °C 1019.4 in /  34516.9 hPa SW 9.3 mph /  15 km/h 4.5 mph /  7.2 km/h 86 % 0.0 in /  0 mm 0.00 W/m2 CLR
05:24 2.8 °F /  -16.2 °C 0.8 °F /  -17.3 °C 1019.4 in /  34516.9 hPa WSW 6.4 mph /  10.3 km/h 2.1 mph /  3.4 km/h 87 % 0.0 in /  0 mm 0.00 W/m2 CLR
05:29 3.9 °F /  -15.6 °C 1.9 °F /  -16.7 °C 1019.5 in /  34520.3 hPa WSW 7.4 mph /  11.9 km/h 3.4 mph /  5.5 km/h 87 % 0.0 in /  0 mm 0.00 W/m2 CLR
05:34 3.9 °F /  -15.6 °C 1.8 °F /  -16.8 °C 1019.5 in /  34520.3 hPa Calm     86 % 0.0 in /  0 mm 0.00 W/m2 CLR
05:39 3.9 °F /  -15.6 °C 1.8 °F /  -16.8 °C 1019.6 in /  34523.7 hPa Calm     86 % 0.0 in /  0 mm 0.00 W/m2 CLR
05:44 3.9 °F /  -15.6 °C 1.8 °F /  -16.8 °C 1019.5 in /  34520.3 hPa Calm     86 % 0.0 in /  0 mm 0.00 W/m2 CLR
05:49 3.3 °F /  -15.9 °C 1.2 °F /  -17.1 °C 1019.6 in /  34523.7 hPa Calm     86 % 0.0 in /  0 mm 0.00 W/m2 CLR
05:54 2.8 °F /  -16.2 °C 0.8 °F /  -17.3 °C 1019.5 in /  34520.3 hPa WNW 5.6 mph /  9 km/h 2.6 mph /  4.2 km/h 87 % 0.0 in /  0 mm 0.00 W/m2 CLR
05:59 2.2 °F /  -16.6 °C 0.3 °F /  -17.6 °C 1019.4 in /  34516.9 hPa WNW 3.2 mph /  5.1 km/h 2.4 mph /  3.9 km/h 87 % 0.0 in /  0 mm 0.00 W/m2 CLR
06:04 1.7 °F /  -16.8 °C -0.1 °F /  -17.8 °C 1019.5 in /  34520.3 hPa NW 16.7 mph /  26.9 km/h 9.8 mph /  15.8 km/h 88 % 0.0 in /  0 mm 0.00 W/m2 CLR
06:09 1.7 °F /  -16.8 °C -0.3 °F /  -17.9 °C 1019.5 in /  34520.3 hPa WNW 14.8 mph /  23.8 km/h 10.9 mph /  17.5 km/h 87 % 0.0 in /  0 mm 0.00 W/m2 CLR
06:14 1.7 °F /  -16.8 °C -0.4 °F /  -18 °C 1019.6 in /  34523.7 hPa WNW 16.7 mph /  26.9 km/h 13.4 mph /  21.6 km/h 86 % 0.0 in /  0 mm 0.00 W/m2 CLR
06:19 1.7 °F /  -16.8 °C -0.6 °F /  -18.1 °C 1019.6 in /  34523.7 hPa West 11.1 mph /  17.9 km/h 5.3 mph /  8.5 km/h 85 % 0.0 in /  0 mm 0.00 W/m2 CLR
06:24 1.7 °F /  -16.8 °C -0.6 °F /  -18.1 °C 1019.5 in /  34520.3 hPa WSW 11.3 mph /  18.2 km/h 8.8 mph /  14.2 km/h 85 % 0.0 in /  0 mm 0.00 W/m2 CLR
06:29 1.7 °F /  -16.8 °C -0.6 °F /  -18.1 °C 1019.6 in /  34523.7 hPa NNW 13.0 mph /  20.9 km/h 8.4 mph /  13.5 km/h 85 % 0.0 in /  0 mm 0.00 W/m2 CLR
06:34 1.7 °F /  -16.8 °C -0.6 °F /  -18.1 °C 1019.6 in /  34523.7 hPa NW 14.8 mph /  23.8 km/h 13.2 mph /  21.2 km/h 85 % 0.0 in /  0 mm 0.00 W/m2 CLR
06:39 2.2 °F /  -16.6 °C -0.1 °F /  -17.8 °C 1019.7 in /  34527 hPa NW 22.2 mph /  35.7 km/h 14.3 mph /  23 km/h 85 % 0.0 in /  0 mm 0.00 W/m2 CLR
06:44 3.3 °F /  -15.9 °C 0.9 °F /  -17.3 °C 1019.8 in /  34530.4 hPa NW 16.7 mph /  26.9 km/h 13.2 mph /  21.2 km/h 84 % 0.0 in /  0 mm 0.00 W/m2 CLR
06:49 3.9 °F /  -15.6 °C 1.4 °F /  -17 °C 1019.8 in /  34530.4 hPa NW 18.5 mph /  29.8 km/h 14.8 mph /  23.8 km/h 84 % 0.0 in /  0 mm 0.00 W/m2 CLR
06:54 3.9 °F /  -15.6 °C 1.4 °F /  -17 °C 1019.8 in /  34530.4 hPa WNW 22.2 mph /  35.7 km/h 15.4 mph /  24.8 km/h 84 % 0.0 in /  0 mm 0.00 W/m2 CLR
06:59 4.4 °F /  -15.3 °C 2.0 °F /  -16.7 °C 1019.9 in /  34533.8 hPa West 27.4 mph /  44.1 km/h 17.7 mph /  28.5 km/h 84 % 0.0 in /  0 mm 0.00 W/m2 CLR
07:04 4.4 °F /  -15.3 °C 2.0 °F /  -16.7 °C 1020.0 in /  34537.2 hPa NW 18.5 mph /  29.8 km/h 12.6 mph /  20.3 km/h 84 % 0.0 in /  0 mm 0.00 W/m2 CLR
07:09 4.4 °F /  -15.3 °C 2.0 °F /  -16.7 °C 1020.0 in /  34537.2 hPa WNW 22.2 mph /  35.7 km/h 9.3 mph /  15 km/h 84 % 0.0 in /  0 mm 0.00 W/m2 CLR
07:14 4.4 °F /  -15.3 °C 2.0 °F /  -16.7 °C 1020.2 in /  34544 hPa West 16.7 mph /  26.9 km/h 12.7 mph /  20.4 km/h 84 % 0.0 in /  0 mm 0.00 W/m2 CLR
07:19 4.4 °F /  -15.3 °C 2.0 °F /  -16.7 °C 1020.1 in /  34540.6 hPa WNW 14.5 mph /  23.3 km/h 11.9 mph /  19.2 km/h 84 % 0.0 in /  0 mm 0.00 W/m2 CLR
07:24 4.4 °F /  -15.3 °C 2.0 °F /  -16.7 °C 1020.2 in /  34544 hPa NW 18.5 mph /  29.8 km/h 11.4 mph /  18.3 km/h 84 % 0.0 in /  0 mm 0.00 W/m2 CLR
07:29 4.4 °F /  -15.3 °C 1.8 °F /  -16.8 °C 1020.2 in /  34544 hPa NW 18.5 mph /  29.8 km/h 15.3 mph /  24.6 km/h 83 % 0.0 in /  0 mm 0.00 W/m2 CLR
07:34 4.4 °F /  -15.3 °C 1.8 °F /  -16.8 °C 1020.1 in /  34540.6 hPa WNW 14.5 mph /  23.3 km/h 10.3 mph /  16.6 km/h 83 % 0.0 in /  0 mm 0.00 W/m2 CLR
07:39 3.9 °F /  -15.6 °C 1.3 °F /  -17.1 °C 1020.2 in /  34544 hPa WNW 16.7 mph /  26.9 km/h 13.5 mph /  21.7 km/h 83 % 0.0 in /  0 mm 0.00 W/m2 CLR
07:44 3.9 °F /  -15.6 °C 1.3 °F /  -17.1 °C 1020.3 in /  34547.4 hPa North 16.7 mph /  26.9 km/h 14.5 mph /  23.3 km/h 83 % 0.0 in /  0 mm 0.00 W/m2 CLR
07:49 4.4 °F /  -15.3 °C 1.8 °F /  -16.8 °C 1020.3 in /  34547.4 hPa WNW 14.8 mph /  23.8 km/h 11.9 mph /  19.2 km/h 83 % 0.0 in /  0 mm 0.00 W/m2 CLR
07:54 3.9 °F /  -15.6 °C 1.3 °F /  -17.1 °C 1020.3 in /  34547.4 hPa WNW 20.4 mph /  32.8 km/h 14.0 mph /  22.5 km/h 83 % 0.0 in /  0 mm 0.00 W/m2 CLR
07:59 3.9 °F /  -15.6 °C 1.3 °F /  -17.1 °C 1020.3 in /  34547.4 hPa NW 20.4 mph /  32.8 km/h 15.0 mph /  24.1 km/h 83 % 0.0 in /  0 mm 0.00 W/m2 CLR
08:04 3.9 °F /  -15.6 °C 1.3 °F /  -17.1 °C 1020.4 in /  34550.7 hPa NW 22.2 mph /  35.7 km/h 17.2 mph /  27.7 km/h 83 % 0.0 in /  0 mm 0.00 W/m2 CLR
08:09 3.9 °F /  -15.6 °C 1.3 °F /  -17.1 °C 1020.3 in /  34547.4 hPa NW 14.8 mph /  23.8 km/h 14.2 mph /  22.9 km/h 83 % 0.0 in /  0 mm 0.00 W/m2 OVC
08:12 3.9 °F /  -15.6 °C 1.4 °F /  -17 °C 1020.3 in /  34547.4 hPa NW 18.5 mph /  29.8 km/h 14.3 mph /  23 km/h 84 % 0.0 in /  0 mm 0.00 W/m2 OVC
08:19 3.9 °F /  -15.6 °C 1.3 °F /  -17.1 °C 1020.4 in /  34550.7 hPa WNW 3.7 mph /  6 km/h   83 % 0.0 in /  0 mm 0.00 W/m2 OVC
08:24 3.9 °F /  -15.6 °C 1.3 °F /  -17.1 °C 1020.5 in /  34554.1 hPa WNW 14.8 mph /  23.8 km/h 6.0 mph /  9.7 km/h 83 % 0.0 in /  0 mm 5.00 W/m2 OVC
08:29 3.9 °F /  -15.6 °C 1.4 °F /  -17 °C 1020.6 in /  34557.5 hPa WNW 7.4 mph /  11.9 km/h 7.9 mph /  12.7 km/h 84 % 0.0 in /  0 mm 7.00 W/m2 OVC
08:34 3.9 °F /  -15.6 °C 1.4 °F /  -17 °C 1020.8 in /  34564.3 hPa Calm     84 % 0.0 in /  0 mm 11.00 W/m2 OVC
08:39 3.9 °F /  -15.6 °C 1.4 °F /  -17 °C 1020.7 in /  34560.9 hPa NW 8.0 mph /  12.9 km/h 5.5 mph /  8.9 km/h 84 % 0.0 in /  0 mm 9.00 W/m2 OVC
08:44 3.9 °F /  -15.6 °C 1.4 °F /  -17 °C 1020.7 in /  34560.9 hPa WNW 14.8 mph /  23.8 km/h 11.4 mph /  18.3 km/h 84 % 0.0 in /  0 mm 12.00 W/m2 OVC
08:47 3.9 °F /  -15.6 °C 1.3 °F /  -17.1 °C 1020.7 in /  34560.9 hPa NW 16.7 mph /  26.9 km/h 13.4 mph /  21.6 km/h 83 % 0.0 in /  0 mm 16.00 W/m2 OVC
08:54 3.9 °F /  -15.6 °C 1.3 °F /  -17.1 °C 1020.7 in /  34560.9 hPa WNW 18.5 mph /  29.8 km/h 14.5 mph /  23.3 km/h 83 % 0.0 in /  0 mm 19.00 W/m2 OVC
08:59 3.9 °F /  -15.6 °C 1.3 °F /  -17.1 °C 1020.7 in /  34560.9 hPa NW 20.4 mph /  32.8 km/h 16.9 mph /  27.2 km/h 83 % 0.0 in /  0 mm 19.00 W/m2 OVC
09:04 3.9 °F /  -15.6 °C 1.1 °F /  -17.2 °C 1020.8 in /  34564.3 hPa NNW 25.9 mph /  41.7 km/h 19.8 mph /  31.9 km/h 82 % 0.0 in /  0 mm 21.00 W/m2 OVC
09:09 4.4 °F /  -15.3 °C 1.8 °F /  -16.8 °C 1020.8 in /  34564.3 hPa WNW 22.2 mph /  35.7 km/h 16.9 mph /  27.2 km/h 83 % 0.0 in /  0 mm 49.00 W/m2 OVC
09:14 4.4 °F /  -15.3 °C 1.8 °F /  -16.8 °C 1020.8 in /  34564.3 hPa NW 16.7 mph /  26.9 km/h 19.0 mph /  30.6 km/h 83 % 0.0 in /  0 mm 56.00 W/m2 OVC
09:19 4.4 °F /  -15.3 °C 1.6 °F /  -16.9 °C 1020.9 in /  34567.7 hPa WNW 24.1 mph /  38.8 km/h 13.4 mph /  21.6 km/h 82 % 0.0 in /  0 mm 86.00 W/m2 OVC
09:24 4.4 °F /  -15.3 °C 1.6 °F /  -16.9 °C 1020.9 in /  34567.7 hPa NNW 27.8 mph /  44.7 km/h 15.6 mph /  25.1 km/h 82 % 0.0 in /  0 mm 98.00 W/m2 BKN
09:29 5.0 °F /  -15 °C 2.2 °F /  -16.6 °C 1020.9 in /  34567.7 hPa NW 24.1 mph /  38.8 km/h 13.5 mph /  21.7 km/h 82 % 0.0 in /  0 mm 116.00 W/m2 FEW
09:34 5.0 °F /  -15 °C 2.2 °F /  -16.6 °C 1021.1 in /  34574.4 hPa NW 22.2 mph /  35.7 km/h 19.1 mph /  30.7 km/h 82 % 0.0 in /  0 mm 132.00 W/m2 CLR
09:39 5.0 °F /  -15 °C 2.2 °F /  -16.6 °C 1021.1 in /  34574.4 hPa NNW 20.9 mph /  33.6 km/h 16.1 mph /  25.9 km/h 82 % 0.0 in /  0 mm 146.00 W/m2 CLR
09:44 5.0 °F /  -15 °C 2.2 °F /  -16.6 °C 1021.1 in /  34574.4 hPa WNW 24.1 mph /  38.8 km/h 20.8 mph /  33.5 km/h 82 % 0.0 in /  0 mm 162.00 W/m2 CLR
09:49 5.0 °F /  -15 °C 2.2 °F /  -16.6 °C 1021.1 in /  34574.4 hPa NW 31.5 mph /  50.7 km/h 17.2 mph /  27.7 km/h 82 % 0.0 in /  0 mm 178.00 W/m2 CLR
09:54 5.0 °F /  -15 °C 2.2 °F /  -16.6 °C 1021.4 in /  34584.6 hPa NNW 18.5 mph /  29.8 km/h 12.1 mph /  19.5 km/h 82 % 0.0 in /  0 mm 195.00 W/m2 CLR
09:59 5.0 °F /  -15 °C 2.0 °F /  -16.7 °C 1021.4 in /  34584.6 hPa NW 33.3 mph /  53.6 km/h 16.6 mph /  26.7 km/h 81 % 0.0 in /  0 mm 69.00 W/m2 CLR
10:04 5.6 °F /  -14.7 °C 2.6 °F /  -16.3 °C 1021.5 in /  34588 hPa NNW 11.1 mph /  17.9 km/h 6.8 mph /  10.9 km/h 81 % 0.0 in /  0 mm 230.00 W/m2 CLR
10:09 5.6 °F /  -14.7 °C 2.6 °F /  -16.3 °C 1021.4 in /  34584.6 hPa NW 17.7 mph /  28.5 km/h 11.6 mph /  18.7 km/h 81 % 0.0 in /  0 mm 248.00 W/m2 CLR
10:14 5.6 °F /  -14.7 °C 2.6 °F /  -16.3 °C 1021.6 in /  34591.4 hPa WNW 18.5 mph /  29.8 km/h 16.6 mph /  26.7 km/h 81 % 0.0 in /  0 mm 271.00 W/m2 CLR
10:19 5.6 °F /  -14.7 °C 2.4 °F /  -16.4 °C 1021.6 in /  34591.4 hPa WNW 24.1 mph /  38.8 km/h 13.4 mph /  21.6 km/h 80 % 0.0 in /  0 mm 281.00 W/m2 CLR
10:24 6.1 °F /  -14.4 °C 2.9 °F /  -16.2 °C 1021.6 in /  34591.4 hPa WNW 14.8 mph /  23.8 km/h 7.4 mph /  11.9 km/h 80 % 0.0 in /  0 mm 295.00 W/m2 CLR
10:29 6.1 °F /  -14.4 °C 2.9 °F /  -16.2 °C 1021.7 in /  34594.8 hPa NW 22.2 mph /  35.7 km/h 7.7 mph /  12.4 km/h 80 % 0.0 in /  0 mm 306.00 W/m2 CLR
10:33 6.1 °F /  -14.4 °C 2.9 °F /  -16.2 °C 1021.7 in /  34594.8 hPa WNW 14.8 mph /  23.8 km/h 7.9 mph /  12.7 km/h 80 % 0.0 in /  0 mm 318.00 W/m2 CLR
10:39 6.1 °F /  -14.4 °C 2.7 °F /  -16.3 °C 1021.9 in /  34601.5 hPa NW 18.5 mph /  29.8 km/h 12.4 mph /  20 km/h 79 % 0.0 in /  0 mm 316.00 W/m2 CLR
10:44 6.1 °F /  -14.4 °C 2.7 °F /  -16.3 °C 1021.7 in /  34594.8 hPa NW 14.8 mph /  23.8 km/h 13.2 mph /  21.2 km/h 79 % 0.0 in /  0 mm 329.00 W/m2 CLR
10:49 6.7 °F /  -14.1 °C 3.3 °F /  -15.9 °C 1021.8 in /  34598.1 hPa NW 18.5 mph /  29.8 km/h 11.9 mph /  19.2 km/h 79 % 0.0 in /  0 mm 339.00 W/m2 CLR
10:54 6.7 °F /  -14.1 °C 3.1 °F /  -16.1 °C 1021.8 in /  34598.1 hPa NW 31.5 mph /  50.7 km/h 15.4 mph /  24.8 km/h 78 % 0.0 in /  0 mm 348.00 W/m2 CLR
10:59 6.7 °F /  -14.1 °C 3.1 °F /  -16.1 °C 1021.8 in /  34598.1 hPa NW 14.8 mph /  23.8 km/h 9.3 mph /  15 km/h 78 % 0.0 in /  0 mm 362.00 W/m2 CLR
11:03 6.7 °F /  -14.1 °C 2.9 °F /  -16.2 °C 1021.9 in /  34601.5 hPa NW 20.9 mph /  33.6 km/h 12.7 mph /  20.4 km/h 77 % 0.0 in /  0 mm 366.00 W/m2 CLR
11:09 7.2 °F /  -13.8 °C 3.4 °F /  -15.9 °C 1022.0 in /  34604.9 hPa NW 22.2 mph /  35.7 km/h 18.3 mph /  29.5 km/h 77 % 0.0 in /  0 mm 380.00 W/m2 CLR
11:14 7.2 °F /  -13.8 °C 3.3 °F /  -15.9 °C 1022.1 in /  34608.3 hPa WNW 22.5 mph /  36.2 km/h 19.0 mph /  30.6 km/h 76 % 0.0 in /  0 mm 404.00 W/m2 CLR
11:19 7.2 °F /  -13.8 °C 3.3 °F /  -15.9 °C 1022.1 in /  34608.3 hPa NNW 18.5 mph /  29.8 km/h 14.8 mph /  23.8 km/h 76 % 0.0 in /  0 mm 401.00 W/m2 CLR
11:24 7.2 °F /  -13.8 °C 3.1 °F /  -16.1 °C 1022.1 in /  34608.3 hPa NNW 24.1 mph /  38.8 km/h 17.9 mph /  28.8 km/h 75 % 0.0 in /  0 mm 388.00 W/m2 CLR
11:29 7.8 °F /  -13.4 °C 3.4 °F /  -15.9 °C 1022.1 in /  34608.3 hPa NNW 33.3 mph /  53.6 km/h 28.5 mph /  45.9 km/h 74 % 0.0 in /  0 mm 420.00 W/m2 CLR
11:34 7.8 °F /  -13.4 °C 3.6 °F /  -15.8 °C 1022.0 in /  34604.9 hPa NNW 29.6 mph /  47.6 km/h 23.3 mph /  37.5 km/h 75 % 0.0 in /  0 mm 429.00 W/m2 CLR
11:39 7.8 °F /  -13.4 °C 3.6 °F /  -15.8 °C 1022.0 in /  34604.9 hPa NNW 24.1 mph /  38.8 km/h 18.3 mph /  29.5 km/h 75 % 0.0 in /  0 mm 432.00 W/m2 CLR
11:44 7.8 °F /  -13.4 °C 3.4 °F /  -15.9 °C 1022.1 in /  34608.3 hPa NW 16.7 mph /  26.9 km/h 8.0 mph /  12.9 km/h 74 % 0.0 in /  0 mm 466.00 W/m2 CLR
11:49 7.8 °F /  -13.4 °C 3.4 °F /  -15.9 °C 1022.1 in /  34608.3 hPa North 31.5 mph /  50.7 km/h 19.3 mph /  31.1 km/h 74 % 0.0 in /  0 mm 455.00 W/m2 CLR
11:54 7.8 °F /  -13.4 °C 3.4 °F /  -15.9 °C 1022.1 in /  34608.3 hPa North 31.5 mph /  50.7 km/h 25.7 mph /  41.4 km/h 74 % 0.0 in /  0 mm 374.00 W/m2 CLR
11:59 7.8 °F /  -13.4 °C 3.4 °F /  -15.9 °C 1022.0 in /  34604.9 hPa NNW 22.5 mph /  36.2 km/h 20.0 mph /  32.2 km/h 74 % 0.0 in /  0 mm 534.00 W/m2 CLR
12:04 8.3 °F /  -13.2 °C 3.6 °F /  -15.8 °C 1022.1 in /  34608.3 hPa NNW 37.0 mph /  59.5 km/h 23.5 mph /  37.8 km/h 72 % 0.0 in /  0 mm 401.00 W/m2 CLR
12:09 8.3 °F /  -13.2 °C 3.8 °F /  -15.7 °C 1022.1 in /  34608.3 hPa NNW 37.0 mph /  59.5 km/h 28.8 mph /  46.3 km/h 73 % 0.0 in /  0 mm 114.00 W/m2 CLR
12:14 7.8 °F /  -13.4 °C 3.4 °F /  -15.9 °C 1022.0 in /  34604.9 hPa NNW 27.4 mph /  44.1 km/h 21.6 mph /  34.8 km/h 74 % 0.0 in /  0 mm 134.00 W/m2 CLR
12:19 7.8 °F /  -13.4 °C 3.4 °F /  -15.9 °C 1021.9 in /  34601.5 hPa NNE 31.5 mph /  50.7 km/h 19.1 mph /  30.7 km/h 74 % 0.0 in /  0 mm 577.00 W/m2 CLR
12:24 7.8 °F /  -13.4 °C 3.6 °F /  -15.8 °C 1021.8 in /  34598.1 hPa NNW 27.8 mph /  44.7 km/h 20.4 mph /  32.8 km/h 75 % 0.0 in /  0 mm 608.00 W/m2 CLR
12:29 8.3 °F /  -13.2 °C 3.8 °F /  -15.7 °C 1021.8 in /  34598.1 hPa NNW 25.9 mph /  41.7 km/h 17.5 mph /  28.2 km/h 73 % 0.0 in /  0 mm 104.00 W/m2 CLR
12:34 8.3 °F /  -13.2 °C 3.8 °F /  -15.7 °C 1021.7 in /  34594.8 hPa NNW 29.6 mph /  47.6 km/h 24.3 mph /  39.1 km/h 73 % 0.0 in /  0 mm 190.00 W/m2 CLR
12:39 7.8 °F /  -13.4 °C 3.2 °F /  -16 °C 1021.8 in /  34598.1 hPa NW 33.3 mph /  53.6 km/h 22.4 mph /  36 km/h 73 % 0.0 in /  0 mm 452.00 W/m2 CLR
12:44 7.8 °F /  -13.4 °C 3.2 °F /  -16 °C 1021.6 in /  34591.4 hPa NW 33.3 mph /  53.6 km/h 24.8 mph /  39.9 km/h 73 % 0.0 in /  0 mm 149.00 W/m2 CLR
12:49 7.8 °F /  -13.4 °C 3.2 °F /  -16 °C 1021.6 in /  34591.4 hPa North 29.0 mph /  46.7 km/h 22.4 mph /  36 km/h 73 % 0.0 in /  0 mm 146.00 W/m2 CLR
12:54 7.8 °F /  -13.4 °C 3.2 °F /  -16 °C 1021.6 in /  34591.4 hPa NNW 33.3 mph /  53.6 km/h 30.6 mph /  49.2 km/h 73 % 0.0 in /  0 mm 111.00 W/m2 CLR
12:59 7.8 °F /  -13.4 °C 3.2 °F /  -16 °C 1021.6 in /  34591.4 hPa NNE 25.7 mph /  41.4 km/h 25.1 mph /  40.4 km/h 73 % 0.0 in /  0 mm 95.00 W/m2 CLR
13:04 7.8 °F /  -13.4 °C 3.4 °F /  -15.9 °C 1021.4 in /  34584.6 hPa NW 31.5 mph /  50.7 km/h 13.0 mph /  20.9 km/h 74 % 0.0 in /  0 mm 142.00 W/m2 CLR
13:09 8.3 °F /  -13.2 °C 3.9 °F /  -15.6 °C 1021.5 in /  34588 hPa NW 31.5 mph /  50.7 km/h 26.5 mph /  42.6 km/h 74 % 0.0 in /  0 mm 594.00 W/m2 CLR
13:14 8.9 °F /  -12.8 °C 4.3 °F /  -15.4 °C 1021.5 in /  34588 hPa NNW 40.7 mph /  65.5 km/h 28.5 mph /  45.9 km/h 73 % 0.0 in /  0 mm 95.00 W/m2 CLR
13:19 8.3 °F /  -13.2 °C 3.9 °F /  -15.6 °C 1021.3 in /  34581.2 hPa NNW 35.2 mph /  56.6 km/h 19.0 mph /  30.6 km/h 74 % 0.0 in /  0 mm 615.00 W/m2 CLR
13:24 8.9 °F /  -12.8 °C 4.3 °F /  -15.4 °C 1021.3 in /  34581.2 hPa North 31.5 mph /  50.7 km/h 26.9 mph /  43.3 km/h 73 % 0.0 in /  0 mm 113.00 W/m2 CLR
13:29 8.9 °F /  -12.8 °C 4.3 °F /  -15.4 °C 1021.3 in /  34581.2 hPa NNW 32.2 mph /  51.8 km/h 22.4 mph /  36 km/h 73 % 0.0 in /  0 mm 134.00 W/m2 CLR
13:34 8.3 °F /  -13.2 °C 3.9 °F /  -15.6 °C 1021.3 in /  34581.2 hPa NNW 31.5 mph /  50.7 km/h 28.3 mph /  45.5 km/h 74 % 0.0 in /  0 mm 578.00 W/m2 CLR
13:39 8.3 °F /  -13.2 °C 3.8 °F /  -15.7 °C 1021.2 in /  34577.8 hPa NW 29.6 mph /  47.6 km/h 23.0 mph /  37 km/h 73 % 0.0 in /  0 mm 111.00 W/m2 CLR
13:44 8.3 °F /  -13.2 °C 3.9 °F /  -15.6 °C 1021.2 in /  34577.8 hPa NW 24.1 mph /  38.8 km/h 19.6 mph /  31.5 km/h 74 % 0.0 in /  0 mm 174.00 W/m2 CLR
13:49 8.3 °F /  -13.2 °C 3.9 °F /  -15.6 °C 1021.1 in /  34574.4 hPa NNW 25.9 mph /  41.7 km/h 20.4 mph /  32.8 km/h 74 % 0.0 in /  0 mm 111.00 W/m2 CLR
13:54 8.3 °F /  -13.2 °C 3.9 °F /  -15.6 °C 1021.0 in /  34571.1 hPa NW 31.5 mph /  50.7 km/h 24.8 mph /  39.9 km/h 74 % 0.0 in /  0 mm 111.00 W/m2 CLR
13:59 8.3 °F /  -13.2 °C 3.8 °F /  -15.7 °C 1021.0 in /  34571.1 hPa NNW 29.6 mph /  47.6 km/h 22.8 mph /  36.7 km/h 73 % 0.0 in /  0 mm 176.00 W/m2 CLR
14:04 8.3 °F /  -13.2 °C 3.8 °F /  -15.7 °C 1021.0 in /  34571.1 hPa NNW 29.0 mph /  46.7 km/h 26.1 mph /  42 km/h 73 % 0.0 in /  0 mm 104.00 W/m2 CLR
14:09 8.3 °F /  -13.2 °C 3.8 °F /  -15.7 °C 1021.0 in /  34571.1 hPa NW 20.4 mph /  32.8 km/h 17.2 mph /  27.7 km/h 73 % 0.0 in /  0 mm 171.00 W/m2 CLR
14:14 8.3 °F /  -13.2 °C 3.9 °F /  -15.6 °C 1020.9 in /  34567.7 hPa NW 19.3 mph /  31.1 km/h 16.1 mph /  25.9 km/h 74 % 0.0 in /  0 mm 171.00 W/m2 CLR
14:19 8.9 °F /  -12.8 °C 4.3 °F /  -15.4 °C 1020.9 in /  34567.7 hPa NNW 27.8 mph /  44.7 km/h 17.1 mph /  27.5 km/h 73 % 0.0 in /  0 mm 186.00 W/m2 CLR
14:24 8.9 °F /  -12.8 °C 4.3 °F /  -15.4 °C 1020.9 in /  34567.7 hPa NNW 24.1 mph /  38.8 km/h 16.9 mph /  27.2 km/h 73 % 0.0 in /  0 mm 83.00 W/m2 CLR
14:29 8.3 °F /  -13.2 °C 3.4 °F /  -15.9 °C 1020.9 in /  34567.7 hPa North 33.3 mph /  53.6 km/h 24.0 mph /  38.6 km/h 71 % 0.0 in /  0 mm 111.00 W/m2 CLR
14:34 8.3 °F /  -13.2 °C 3.4 °F /  -15.9 °C 1020.9 in /  34567.7 hPa North 31.5 mph /  50.7 km/h 24.1 mph /  38.8 km/h 71 % 0.0 in /  0 mm 114.00 W/m2 CLR
14:39 8.3 °F /  -13.2 °C 3.6 °F /  -15.8 °C 1020.7 in /  34560.9 hPa North 24.1 mph /  38.8 km/h 16.9 mph /  27.2 km/h 72 % 0.0 in /  0 mm 461.00 W/m2 CLR
14:44 8.3 °F /  -13.2 °C 3.4 °F /  -15.9 °C 1020.7 in /  34560.9 hPa North 33.3 mph /  53.6 km/h 22.0 mph /  35.4 km/h 71 % 0.0 in /  0 mm 274.00 W/m2 CLR
14:49 8.9 °F /  -12.8 °C 3.7 °F /  -15.7 °C 1020.8 in /  34564.3 hPa NW 27.8 mph /  44.7 km/h 21.6 mph /  34.8 km/h 70 % 0.0 in /  0 mm 427.00 W/m2 CLR
14:54 9.4 °F /  -12.6 °C 4.1 °F /  -15.5 °C 1020.6 in /  34557.5 hPa NW 31.5 mph /  50.7 km/h 23.3 mph /  37.5 km/h 69 % 0.0 in /  0 mm 513.00 W/m2 CLR
14:59 10.0 °F /  -12.2 °C 4.8 °F /  -15.1 °C 1020.7 in /  34560.9 hPa North 33.8 mph /  54.4 km/h 27.5 mph /  44.3 km/h 70 % 0.0 in /  0 mm 508.00 W/m2 CLR
15:04 10.6 °F /  -11.9 °C 5.1 °F /  -14.9 °C 1020.6 in /  34557.5 hPa NW 31.5 mph /  50.7 km/h 20.0 mph /  32.2 km/h 69 % 0.0 in /  0 mm 529.00 W/m2 CLR
15:09 10.6 °F /  -11.9 °C 4.7 °F /  -15.2 °C 1020.5 in /  34554.1 hPa NNW 22.2 mph /  35.7 km/h 15.0 mph /  24.1 km/h 67 % 0.0 in /  0 mm 513.00 W/m2 CLR
15:14 11.1 °F /  -11.6 °C 5.0 °F /  -15 °C 1020.7 in /  34560.9 hPa NNW 25.9 mph /  41.7 km/h 21.2 mph /  34.1 km/h 66 % 0.0 in /  0 mm 98.00 W/m2 CLR
15:19 10.0 °F /  -12.2 °C 4.3 °F /  -15.4 °C 1020.7 in /  34560.9 hPa North 31.5 mph /  50.7 km/h 25.3 mph /  40.7 km/h 68 % 0.0 in /  0 mm 76.00 W/m2 CLR
15:24 8.9 °F /  -12.8 °C 3.5 °F /  -15.8 °C 1020.6 in /  34557.5 hPa NNW 31.5 mph /  50.7 km/h 22.5 mph /  36.2 km/h 69 % 0.0 in /  0 mm 116.00 W/m2 CLR
15:29 9.4 °F /  -12.6 °C 4.1 °F /  -15.5 °C 1020.7 in /  34560.9 hPa NW 29.6 mph /  47.6 km/h 23.3 mph /  37.5 km/h 69 % 0.0 in /  0 mm 116.00 W/m2 CLR
15:34 9.4 °F /  -12.6 °C 4.1 °F /  -15.5 °C 1020.7 in /  34560.9 hPa NNW 37.0 mph /  59.5 km/h 27.7 mph /  44.6 km/h 69 % 0.0 in /  0 mm 371.00 W/m2 CLR
15:39 9.4 °F /  -12.6 °C 4.2 °F /  -15.4 °C 1020.7 in /  34560.9 hPa NNW 33.8 mph /  54.4 km/h 23.8 mph /  38.3 km/h 70 % 0.0 in /  0 mm 77.00 W/m2 CLR
15:44 8.9 °F /  -12.8 °C 3.5 °F /  -15.8 °C 1020.7 in /  34560.9 hPa NNW 30.6 mph /  49.2 km/h 26.4 mph /  42.5 km/h 69 % 0.0 in /  0 mm 378.00 W/m2 CLR
15:49 9.4 °F /  -12.6 °C 3.8 °F /  -15.7 °C 1020.7 in /  34560.9 hPa North 25.9 mph /  41.7 km/h 22.2 mph /  35.7 km/h 68 % 0.0 in /  0 mm 86.00 W/m2 CLR
15:54 8.9 °F /  -12.8 °C 3.7 °F /  -15.7 °C 1020.8 in /  34564.3 hPa NW 27.8 mph /  44.7 km/h 18.0 mph /  29 km/h 70 % 0.0 in /  0 mm 58.00 W/m2 FEW
15:59 8.3 °F /  -13.2 °C 3.2 °F /  -16 °C 1020.8 in /  34564.3 hPa NNW 22.2 mph /  35.7 km/h 15.0 mph /  24.1 km/h 70 % 0.0 in /  0 mm 53.00 W/m2 FEW
16:04 8.3 °F /  -13.2 °C 3.4 °F /  -15.9 °C 1020.8 in /  34564.3 hPa NW 24.1 mph /  38.8 km/h 16.1 mph /  25.9 km/h 71 % 0.0 in /  0 mm 67.00 W/m2 FEW
16:09 8.3 °F /  -13.2 °C 3.4 °F /  -15.9 °C 1020.6 in /  34557.5 hPa NW 25.9 mph /  41.7 km/h 21.7 mph /  34.9 km/h 71 % 0.0 in /  0 mm 58.00 W/m2 FEW
16:14 8.3 °F /  -13.2 °C 3.6 °F /  -15.8 °C 1020.7 in /  34560.9 hPa NW 20.4 mph /  32.8 km/h 17.7 mph /  28.5 km/h 72 % 0.0 in /  0 mm 260.00 W/m2 FEW
16:19 8.3 °F /  -13.2 °C 3.4 °F /  -15.9 °C 1020.6 in /  34557.5 hPa NW 17.7 mph /  28.5 km/h 15.9 mph /  25.6 km/h 71 % 0.0 in /  0 mm 227.00 W/m2 CLR
16:24 8.9 °F /  -12.8 °C 3.7 °F /  -15.7 °C 1020.6 in /  34557.5 hPa WNW 24.1 mph /  38.8 km/h 15.8 mph /  25.4 km/h 70 % 0.0 in /  0 mm 209.00 W/m2 CLR
16:29 8.3 °F /  -13.2 °C 3.2 °F /  -16 °C 1020.5 in /  34554.1 hPa WNW 22.5 mph /  36.2 km/h 16.4 mph /  26.4 km/h 70 % 0.0 in /  0 mm 193.00 W/m2 CLR
16:34 8.3 °F /  -13.2 °C 3.0 °F /  -16.1 °C 1020.6 in /  34557.5 hPa NW 29.6 mph /  47.6 km/h 19.1 mph /  30.7 km/h 69 % 0.0 in /  0 mm 178.00 W/m2 CLR
16:39 8.3 °F /  -13.2 °C 3.0 °F /  -16.1 °C 1020.5 in /  34554.1 hPa NW 25.9 mph /  41.7 km/h 22.7 mph /  36.5 km/h 69 % 0.0 in /  0 mm 149.00 W/m2 CLR
16:44 8.3 °F /  -13.2 °C 3.0 °F /  -16.1 °C 1020.5 in /  34554.1 hPa WNW 25.9 mph /  41.7 km/h 18.2 mph /  29.3 km/h 69 % 0.0 in /  0 mm 142.00 W/m2 CLR
16:49 8.3 °F /  -13.2 °C 2.8 °F /  -16.2 °C 1020.5 in /  34554.1 hPa NNW 22.2 mph /  35.7 km/h 16.3 mph /  26.2 km/h 68 % 0.0 in /  0 mm 130.00 W/m2 CLR
16:54 8.3 °F /  -13.2 °C 2.6 °F /  -16.3 °C 1020.4 in /  34550.7 hPa NW 25.9 mph /  41.7 km/h 21.7 mph /  34.9 km/h 67 % 0.0 in /  0 mm 118.00 W/m2 CLR
Lo Temps de Massalio
Compliments of Weather Underground - 1 mb